Kirkland, WA

6:07 PM PDT on September 15, 2014 (GMT -0700)
Kirkland Highlands | Change Station
CLOSE
Current Station
Personal Weather Station
Location: Kirkland, WA
Elevation: 301 ft
Nearby Weather Stations

Elev 301 ft 47.69 °N, 122.19 °W | Updated 1 minute ago

Clear
Clear
82.4 °F
Feels Like 80 °F
N
0.0
Wind Variable Wind from SSE
Gusts 4.0 mph

Today
High -- | Low -- °F
--% Chance of Precip.
Yesterday
High -- | Low -- °F
Precip. -- in
6:46 AM 7:20 PM
Waning Gibbous, 50% visible
Pressure 29.77 in
Visibility 10.0 miles
Clouds Clear
Heat Index 80 °F
Dew Point 32 °F
Humidity 16%
Rainfall 0.00 in
Snow Depth 0 in , 0 in , 0 in
UV 1 out of 12
Pollen 2.40 out of 12
Air Quality Not available.
Flu Activity Not available.
METAR KBFI 160053Z 33004KT 10SM CLR 29/06 A2977 RMK AO2 SLP080 T02890061

More Conditions Fewer Conditions

Pressure 29.77 in
Visibility 10.0 miles
Clouds Clear
Heat Index 80 °F
Dew Point 32 °F
Humidity 16%
Rainfall 0.00 in
Snow Depth 0 in , 0 in , 0 in
UV 1 out of 12
Pollen 2.40 out of 12
Air Quality Not available.
Flu Activity Not available.
METAR KBFI 160053Z 33004KT 10SM CLR 29/06 A2977 RMK AO2 SLP080 T02890061

More Conditions Fewer Conditions

10-Day Weather Forecast

Almanac

Astronomy

Sep. 15, 2014 Rise Set
Actual Time 6:46 AM PDT 7:20 PM PDT
Civil Twilight 6:15 AM PDT 7:51 PM PDT
Nautical Twilight 5:38 AM PDT 8:28 PM PDT
Astronomical Twilight 4:59 AM PDT 9:06 PM PDT
Moon 11:43 PM PDT (9/15) 2:16 PM PDT (9/15)
Length of Visible Light 13h 36m
Length of Day
12h 34m
Tomorrow will be 3m 24s shorter.
Waning Gibbous, 50% of the Moon is Illuminated
Today
Waning Gibbous
Sep 15
Last Quarter
Sep 24
New
Oct 1
First Quarter
Oct 8
Full

Today's Extremes

State Highs State Lows

Community

WunderPhotos

Upload Photos

1,753,630 photos uploaded!

WunderBlogs® & News

Nearby

Snow Depth

Station Depth Elevation
Pigtail Peak 0 in 5900 ft
Olallie Meadows 0 in 3700 ft
Stampede Pass 0 in 3860 ft
Quartz Peak 0 in 4700 ft
Pope Ridge 0 in 3540 ft

Earthquake Activity

City Distance Mag. Time & Date
No recent earthquake activity has been reported nearby.
Minimum magnitude displayed is 2.5.

Coastal Water Temperatures

Place Temperature
Port Townsend, WA 53.1 °F
Seattle, WA 57.0 °F
Friday Harbor, WA 53.1 °F
Tacoma, WA 55.9 °F

Nearby Weather Stations